Time;durP1;ratioP1;P1;durP2;ratioP2;P2;SDS_P1;SDS_P2;PMS_P1;PMS_P2;Temp;Humidity;BMP_temperature;BMP_pressure;BME280_temperature;BME280_humidity;BME280_pressure;Samples;Min_cycle;Max_cycle;Signal;HPM_P1;HPM_P2
2023/12/31 00:00:14;;;;;;;6.65;5.40;;;;;;;3.23;100.00;92517.94;2114945;27;20075;-77
2023/12/31 00:01:15;;;;;;;7.60;5.53;;;;;;;3.20;100.00;92513.41;2092173;28;20478;-79
2023/12/31 00:02:16;;;;;;;8.07;5.25;;;;;;;3.37;100.00;92507.31;2102245;27;20020;-79
2023/12/31 00:03:17;;;;;;;8.45;6.05;;;;;;;3.40;100.00;92511.06;2105189;28;20024;-78
2023/12/31 00:04:18;;;;;;;6.13;5.20;;;;;;;3.35;100.00;92508.84;2099063;28;20469;-79
2023/12/31 00:05:19;;;;;;;6.55;5.15;;;;;;;3.36;100.00;92505.06;2105582;28;20115;-78
2023/12/31 00:06:20;;;;;;;6.70;5.18;;;;;;;3.30;100.00;92496.78;2113856;28;20031;-79
2023/12/31 00:07:21;;;;;;;6.72;5.28;;;;;;;3.35;100.00;92506.19;2099732;28;20522;-78
2023/12/31 00:08:22;;;;;;;6.40;5.07;;;;;;;3.13;100.00;92493.09;2105123;28;20028;-79
2023/12/31 00:09:23;;;;;;;5.75;4.72;;;;;;;3.06;100.00;92492.34;2119584;27;20026;-79
2023/12/31 00:10:24;;;;;;;7.63;5.28;;;;;;;2.91;100.00;92487.13;2120600;27;20472;-80
2023/12/31 00:11:25;;;;;;;6.00;5.22;;;;;;;3.09;100.00;92486.31;2116493;27;20400;-78
2023/12/31 00:12:26;;;;;;;9.60;5.30;;;;;;;3.03;100.00;92489.34;2123157;27;20019;-80
2023/12/31 00:13:27;;;;;;;6.30;4.93;;;;;;;3.03;100.00;92483.31;2114352;28;20034;-80
2023/12/31 00:14:28;;;;;;;6.68;5.43;;;;;;;2.94;100.00;92481.09;2116652;27;20047;-80
2023/12/31 00:15:29;;;;;;;8.88;5.43;;;;;;;2.95;100.00;92482.59;2122188;27;20443;-79
2023/12/31 00:16:29;;;;;;;7.20;5.05;;;;;;;2.98;100.00;92481.81;2105343;28;20089;-78
2023/12/31 00:17:32;;;;;;;7.90;5.25;;;;;;;3.03;100.00;92478.03;2109567;27;20104;-79
2023/12/31 00:18:33;;;;;;;8.30;5.72;;;;;;;3.08;100.00;92484.81;2108846;28;20032;-80
2023/12/31 00:19:34;;;;;;;6.47;5.15;;;;;;;3.09;100.00;92487.06;2106139;28;20024;-80
2023/12/31 00:20:35;;;;;;;6.60;5.18;;;;;;;2.96;100.00;92472.78;2114590;27;20399;-79
2023/12/31 00:21:40;;;;;;;6.63;5.30;;;;;;;3.07;100.00;92470.09;2105115;28;20028;-80
2023/12/31 00:22:41;;;;;;;8.65;5.97;;;;;;;3.22;100.00;92469.66;2107069;28;20436;-79
2023/12/31 00:23:42;;;;;;;7.57;5.32;;;;;;;3.08;100.00;92474.25;2114760;27;20343;-78
2023/12/31 00:24:43;;;;;;;6.57;5.57;;;;;;;3.07;100.00;92470.09;2111905;28;20070;-79
2023/12/31 00:25:44;;;;;;;7.22;5.57;;;;;;;3.10;100.00;92467.44;2100885;28;20040;-80
2023/12/31 00:26:45;;;;;;;6.72;5.20;;;;;;;2.95;100.00;92466.75;2096971;28;20461;-79
2023/12/31 00:27:46;;;;;;;7.80;5.63;;;;;;;3.00;100.00;92461.06;2100820;28;20035;-79
2023/12/31 00:28:52;;;;;;;6.60;5.35;;;;;;;3.07;100.00;92462.91;2096692;28;20059;-80
2023/12/31 00:29:53;;;;;;;6.32;5.40;;;;;;;2.93;100.00;92465.63;2113636;28;20027;-79
2023/12/31 00:30:54;;;;;;;6.28;5.25;;;;;;;3.05;100.00;92459.16;2103739;28;20031;-77
2023/12/31 00:31:55;;;;;;;7.55;5.53;;;;;;;3.04;100.00;92461.06;2104099;28;20028;-80
2023/12/31 00:32:56;;;;;;;9.55;5.40;;;;;;;2.98;100.00;92458.03;2112718;27;20027;-79
2023/12/31 00:33:57;;;;;;;7.05;5.55;;;;;;;2.96;100.00;92456.94;2119472;27;20897;-77
2023/12/31 00:34:58;;;;;;;7.05;5.55;;;;;;;2.97;100.00;92455.78;2118997;27;20129;-81
2023/12/31 00:36:00;;;;;;;7.07;5.65;;;;;;;2.85;100.00;92453.56;2110839;28;20031;-78
2023/12/31 00:37:03;;;;;;;8.35;5.93;;;;;;;2.91;100.00;92452.81;2105301;28;20311;-79
2023/12/31 00:38:04;;;;;;;8.57;6.00;;;;;;;2.97;100.00;92461.06;2114722;28;20689;-79
2023/12/31 00:39:05;;;;;;;7.78;5.50;;;;;;;3.00;100.00;92455.03;2108479;28;20082;-79
2023/12/31 00:40:07;;;;;;;8.77;6.00;;;;;;;2.99;100.00;92451.66;2105227;28;20036;-79
2023/12/31 00:41:08;;;;;;;7.95;6.05;;;;;;;2.91;100.00;92442.25;2113600;28;20077;-79
2023/12/31 00:42:08;;;;;;;9.05;6.00;;;;;;;3.01;100.00;92445.97;2109327;28;20419;-78
2023/12/31 00:43:09;;;;;;;6.80;6.10;;;;;;;2.95;100.00;92440.34;2112098;28;20049;-79
2023/12/31 00:44:10;;;;;;;8.85;6.25;;;;;;;3.00;100.00;92445.22;2121553;27;20015;-80
2023/12/31 00:45:11;;;;;;;8.55;6.18;;;;;;;2.93;100.00;92437.31;2113022;27;20936;-79
2023/12/31 00:46:13;;;;;;;7.72;6.15;;;;;;;2.85;100.00;92435.84;2117582;27;20063;-78
2023/12/31 00:47:14;;;;;;;7.90;6.07;;;;;;;2.84;100.00;92437.00;2106095;28;20028;-78
2023/12/31 00:48:15;;;;;;;7.40;5.75;;;;;;;2.89;100.00;92433.94;2105639;28;20061;-80
2023/12/31 00:49:17;;;;;;;8.27;6.18;;;;;;;2.93;100.00;92434.69;2109585;28;20024;-79
2023/12/31 00:50:19;;;;;;;7.95;6.35;;;;;;;2.84;100.00;92428.31;2115998;27;20098;-79
2023/12/31 00:51:21;;;;;;;8.85;6.38;;;;;;;2.87;100.00;92430.97;2113564;27;20023;-79
2023/12/31 00:52:22;;;;;;;7.55;5.85;;;;;;;2.90;100.00;92424.91;2116516;27;20113;-80
2023/12/31 00:53:23;;;;;;;7.65;5.53;;;;;;;2.89;100.00;92428.66;2116513;27;20422;-78
2023/12/31 00:54:24;;;;;;;8.05;6.43;;;;;;;2.86;100.00;92424.19;2128543;27;20026;-80
2023/12/31 00:55:25;;;;;;;8.60;5.93;;;;;;;2.92;100.00;92427.91;2124884;27;20023;-81
2023/12/31 00:56:26;;;;;;;7.72;5.85;;;;;;;2.61;100.00;92420.88;2115218;27;20015;-79
2023/12/31 00:57:26;;;;;;;8.57;5.75;;;;;;;2.75;100.00;92424.22;2102696;28;20024;-80
2023/12/31 00:58:27;;;;;;;11.07;6.50;;;;;;;2.78;100.00;92423.44;2103465;28;20027;-79
2023/12/31 00:59:28;;;;;;;6.97;6.15;;;;;;;2.91;100.00;92417.75;2104995;28;20028;-79
2023/12/31 01:00:30;;;;;;;8.60;6.03;;;;;;;2.69;100.00;92412.56;2106384;28;20062;-81
2023/12/31 01:01:31;;;;;;;9.20;6.53;;;;;;;2.73;100.00;92413.28;2097484;28;20020;-78
2023/12/31 01:02:31;;;;;;;7.72;5.93;;;;;;;2.80;100.00;92417.03;2113798;27;20135;-81
2023/12/31 01:03:33;;;;;;;9.38;6.80;;;;;;;2.72;100.00;92417.06;2108151;28;20112;-78
2023/12/31 01:04:36;;;;;;;9.02;6.03;;;;;;;2.76;100.00;92406.47;2088942;28;20054;-79
2023/12/31 01:05:37;;;;;;;9.13;5.90;;;;;;;2.82;100.00;92410.25;2104176;28;20426;-80
2023/12/31 01:06:38;;;;;;;8.93;6.07;;;;;;;2.77;100.00;92405.38;2104593;28;20035;-80
2023/12/31 01:07:39;;;;;;;10.23;6.13;;;;;;;2.78;100.00;92410.25;2103802;28;20441;-79
2023/12/31 01:08:40;;;;;;;6.53;5.50;;;;;;;2.75;100.00;92407.63;2117299;27;20039;-80
2023/12/31 01:09:41;;;;;;;9.32;6.57;;;;;;;2.75;100.00;92412.91;2113191;28;20028;-79
2023/12/31 01:10:41;;;;;;;7.40;5.88;;;;;;;2.77;100.00;92408.00;2106256;28;20028;-79
2023/12/31 01:11:42;;;;;;;6.93;5.68;;;;;;;2.78;100.00;92410.25;2096745;28;20778;-79
2023/12/31 01:12:43;;;;;;;7.80;6.03;;;;;;;2.65;100.00;92401.25;2117488;27;20035;-80
2023/12/31 01:13:44;;;;;;;8.10;6.32;;;;;;;2.64;100.00;92399.00;2105422;28;20091;-78
2023/12/31 01:14:45;;;;;;;7.72;6.15;;;;;;;2.67;100.00;92403.50;2097004;28;20101;-79
2023/12/31 01:15:46;;;;;;;8.20;5.93;;;;;;;2.67;100.00;92403.50;2120708;27;20062;-79
2023/12/31 01:16:48;;;;;;;9.25;5.97;;;;;;;2.64;100.00;92401.66;2117364;27;20507;-81
2023/12/31 01:17:49;;;;;;;7.55;5.70;;;;;;;2.75;100.00;92399.72;2126533;27;20018;-79
2023/12/31 01:18:50;;;;;;;6.95;5.78;;;;;;;2.70;100.00;92400.13;2104952;28;20031;-80
2023/12/31 01:19:53;;;;;;;8.13;5.90;;;;;;;2.59;100.00;92404.66;2104968;28;20033;-79
2023/12/31 01:20:54;;;;;;;8.90;6.05;;;;;;;2.75;100.00;92408.38;2104027;28;20558;-79
2023/12/31 01:21:55;;;;;;;8.05;5.90;;;;;;;2.73;100.00;92409.91;2114698;27;20019;-77
2023/12/31 01:22:56;;;;;;;6.38;5.10;;;;;;;2.80;100.00;92406.47;2116307;27;20418;-79
2023/12/31 01:23:57;;;;;;;7.60;6.13;;;;;;;2.61;100.00;92410.31;2121487;27;20071;-79
2023/12/31 01:24:58;;;;;;;8.23;6.40;;;;;;;2.70;100.00;92403.50;2119861;27;20059;-80
2023/12/31 01:25:59;;;;;;;6.18;5.25;;;;;;;2.65;100.00;92413.69;2124940;27;20087;-78
2023/12/31 01:27:00;;;;;;;7.93;6.03;;;;;;;2.74;100.00;92406.88;2113701;27;20027;-80
2023/12/31 01:28:01;;;;;;;8.02;5.93;;;;;;;2.76;100.00;92407.22;2108748;28;20444;-79
2023/12/31 01:29:02;;;;;;;7.85;5.90;;;;;;;2.80;100.00;92409.88;2104605;28;20452;-80
2023/12/31 01:30:03;;;;;;;7.05;5.53;;;;;;;2.81;100.00;92407.97;2123799;27;20019;-79
2023/12/31 01:31:04;;;;;;;7.25;5.68;;;;;;;2.75;100.00;92397.06;2112530;27;20027;-80
2023/12/31 01:32:05;;;;;;;9.15;5.78;;;;;;;2.80;100.00;92395.91;2112809;27;20031;-78
2023/12/31 01:33:06;;;;;;;8.10;5.82;;;;;;;2.85;100.00;92411.34;2108109;28;20102;-78
2023/12/31 01:34:07;;;;;;;8.93;6.97;;;;;;;2.66;100.00;92402.75;2109585;28;20436;-80
2023/12/31 01:35:09;;;;;;;8.35;5.60;;;;;;;2.69;100.00;92402.00;2117914;27;20019;-80
2023/12/31 01:36:16;;;;;;;8.20;5.40;;;;;;;2.41;100.00;92405.47;2117500;27;20453;-81
2023/12/31 01:37:17;;;;;;;8.57;6.55;;;;;;;2.58;100.00;92396.00;2118605;27;20026;-80
2023/12/31 01:38:18;;;;;;;8.23;6.07;;;;;;;2.62;100.00;92396.75;2121247;27;20019;-78
2023/12/31 01:39:19;;;;;;;7.20;5.97;;;;;;;2.65;100.00;92390.72;2118295;27;20463;-80
2023/12/31 01:40:20;;;;;;;8.00;5.78;;;;;;;2.62;100.00;92391.47;2107438;28;20052;-79
2023/12/31 01:41:21;;;;;;;7.75;6.10;;;;;;;2.61;100.00;92397.13;2118787;27;20062;-80
2023/12/31 01:42:22;;;;;;;7.88;5.57;;;;;;;2.61;100.00;92392.59;2121830;27;20035;-78
2023/12/31 01:43:23;;;;;;;8.00;6.30;;;;;;;2.51;100.00;92394.16;2115772;27;20336;-78
2023/12/31 01:44:24;;;;;;;9.10;6.20;;;;;;;2.53;100.00;92391.88;2116971;27;20057;-78
2023/12/31 01:45:25;;;;;;;7.25;5.88;;;;;;;2.58;100.00;92389.97;2116166;27;20080;-79
2023/12/31 01:46:28;;;;;;;9.52;6.50;;;;;;;2.44;100.00;92386.25;2115691;27;20056;-80
2023/12/31 01:47:34;;;;;;;7.13;5.45;;;;;;;2.48;100.00;92392.28;2120478;27;20102;-79
2023/12/31 01:48:35;;;;;;;7.70;6.03;;;;;;;2.46;100.00;92388.53;2117786;27;20042;-80
2023/12/31 01:49:37;;;;;;;7.50;5.47;;;;;;;2.42;100.00;92390.41;2106508;28;20403;-80
2023/12/31 01:50:38;;;;;;;8.43;6.03;;;;;;;2.35;100.00;92382.53;2112766;28;20476;-79
2023/12/31 01:51:39;;;;;;;7.28;5.80;;;;;;;2.29;100.00;92384.06;2121857;27;20019;-80
2023/12/31 01:52:41;;;;;;;7.18;5.85;;;;;;;2.23;100.00;92387.06;2118992;27;20532;-80
2023/12/31 01:53:42;;;;;;;7.00;6.03;;;;;;;2.25;100.00;92386.69;2110276;28;20412;-78
2023/12/31 01:54:43;;;;;;;8.95;6.45;;;;;;;2.05;100.00;92380.31;2099664;28;20036;-79
2023/12/31 01:55:46;;;;;;;7.40;6.07;;;;;;;2.08;100.00;92379.56;2101010;27;20325;-78
2023/12/31 01:56:51;;;;;;;8.50;6.20;;;;;;;2.00;100.00;92374.31;2115280;27;20066;-78
2023/12/31 01:57:52;;;;;;;7.07;5.65;;;;;;;1.94;100.00;92373.19;2115710;27;20055;-79
2023/12/31 01:58:54;;;;;;;9.55;5.60;;;;;;;1.98;100.00;92365.28;2105444;28;20456;-78
2023/12/31 01:59:56;;;;;;;7.45;5.82;;;;;;;1.84;100.00;92368.69;2096260;28;20111;-79
2023/12/31 02:00:57;;;;;;;7.40;5.40;;;;;;;1.87;100.00;92372.44;2105682;28;20024;-79
2023/12/31 02:01:58;;;;;;;6.50;5.43;;;;;;;1.64;100.00;92368.34;2122793;27;20140;-81
2023/12/31 02:02:59;;;;;;;7.60;5.70;;;;;;;1.79;100.00;92361.16;2114840;27;20373;-79
2023/12/31 02:04:00;;;;;;;7.20;5.30;;;;;;;1.88;100.00;92358.88;2117022;27;20090;-80
2023/12/31 02:05:02;;;;;;;7.03;5.50;;;;;;;1.91;100.00;92358.13;2116987;27;20392;-78
2023/12/31 02:06:03;;;;;;;7.10;5.80;;;;;;;1.74;100.00;92357.03;2121484;27;20079;-79
2023/12/31 02:07:04;;;;;;;6.53;5.43;;;;;;;1.82;100.00;92359.66;2116880;27;20032;-79
2023/12/31 02:08:05;;;;;;;9.05;6.35;;;;;;;1.84;100.00;92358.13;2108623;28;20051;-79
2023/12/31 02:09:06;;;;;;;8.43;5.82;;;;;;;1.85;100.00;92351.00;2119611;27;20019;-80
2023/12/31 02:10:07;;;;;;;6.47;5.15;;;;;;;1.67;100.00;92351.78;2130941;27;20078;-79
2023/12/31 02:11:10;;;;;;;8.98;6.07;;;;;;;1.67;100.00;92346.53;2122353;27;20428;-80
2023/12/31 02:12:11;;;;;;;9.90;6.05;;;;;;;1.84;100.00;92352.13;2117450;27;20092;-80
2023/12/31 02:13:12;;;;;;;7.72;5.72;;;;;;;1.85;100.00;92351.75;2108770;28;20476;-78
2023/12/31 02:14:13;;;;;;;8.18;5.80;;;;;;;1.90;100.00;92346.09;2110219;27;20023;-79
2023/12/31 02:15:29;;;;;;;7.55;6.03;;;;;;;1.87;100.00;92349.50;2116479;27;20027;-80
2023/12/31 02:16:30;;;;;;;6.68;5.68;;;;;;;1.85;100.00;92345.75;2106264;28;20032;-79
2023/12/31 02:17:31;;;;;;;7.80;6.20;;;;;;;1.84;100.00;92344.97;2104461;28;20064;-78
2023/12/31 02:18:32;;;;;;;8.50;5.68;;;;;;;1.94;100.00;92344.22;2106903;28;20414;-79
2023/12/31 02:19:33;;;;;;;6.82;5.57;;;;;;;1.98;100.00;92350.22;2108629;28;20115;-78
2023/12/31 02:20:34;;;;;;;8.00;5.85;;;;;;;1.99;100.00;92341.19;2111765;28;20023;-79
2023/12/31 02:21:35;;;;;;;7.80;5.88;;;;;;;2.11;100.00;92340.03;2111732;28;20038;-78
2023/12/31 02:22:35;;;;;;;8.27;6.00;;;;;;;2.14;100.00;92339.25;2104613;28;20016;-80
2023/12/31 02:25:23;;;;;;;;;;;;;;;0.72;100.00;92330.28;2141439;27;20118;-80
2023/12/31 02:26:24;;;;;;;8.00;5.43;;;;;;;0.67;100.00;92335.16;2129297;27;20386;-79
2023/12/31 02:27:25;;;;;;;8.88;6.20;;;;;;;0.78;100.00;92329.91;2128749;27;20101;-80
2023/12/31 02:28:26;;;;;;;9.27;6.13;;;;;;;0.86;100.00;92331.44;2128853;27;20030;-80
2023/12/31 02:29:27;;;;;;;7.50;5.88;;;;;;;0.90;100.00;92322.41;2120118;27;20022;-80
2023/12/31 02:30:28;;;;;;;8.32;6.05;;;;;;;0.98;100.00;92328.44;2117074;28;20031;-81
2023/12/31 02:31:36;;;;;;;8.25;6.20;;;;;;;0.85;100.00;92330.69;2109532;28;20015;-79
2023/12/31 02:32:37;;;;;;;7.35;6.18;;;;;;;0.90;100.00;92324.31;2108955;28;20032;-80
2023/12/31 02:33:38;;;;;;;10.05;6.80;;;;;;;0.93;100.00;92323.56;2110283;28;20028;-81
2023/12/31 02:34:44;;;;;;;10.52;7.07;;;;;;;0.96;100.00;92323.53;2121161;28;20034;-79
2023/12/31 02:35:45;;;;;;;8.23;6.00;;;;;;;0.90;100.00;92317.16;2112886;27;20023;-80
2023/12/31 02:36:46;;;;;;;7.82;5.68;;;;;;;0.96;100.00;92309.63;2128769;27;20814;-79
2023/12/31 02:37:47;;;;;;;7.00;5.80;;;;;;;0.88;100.00;92316.03;2129963;27;20092;-80
2023/12/31 02:38:48;;;;;;;7.85;5.78;;;;;;;0.98;100.00;92310.03;2111582;28;20039;-79
2023/12/31 02:39:49;;;;;;;7.47;5.00;;;;;;;1.00;100.00;92315.66;2106187;28;20122;-80
2023/12/31 02:40:50;;;;;;;7.68;5.78;;;;;;;1.11;100.00;92316.44;2121327;27;20428;-79
2023/12/31 02:41:51;;;;;;;5.80;5.13;;;;;;;1.10;100.00;92308.91;2118713;28;20027;-80
2023/12/31 02:42:52;;;;;;;8.27;5.90;;;;;;;1.06;100.00;92303.66;2104055;28;20020;-79
2023/12/31 02:43:53;;;;;;;9.38;6.78;;;;;;;1.03;100.00;92309.66;2119663;27;20216;-81
2023/12/31 02:44:54;;;;;;;8.77;6.78;;;;;;;1.06;100.00;92308.16;2113281;28;20033;-80
2023/12/31 02:45:55;;;;;;;10.43;6.78;;;;;;;0.95;100.00;92301.00;2113408;27;20118;-80
2023/12/31 02:46:56;;;;;;;9.48;6.85;;;;;;;1.00;100.00;92300.63;2106379;28;20040;-80
2023/12/31 02:47:57;;;;;;;8.45;6.47;;;;;;;0.94;100.00;92301.38;2105609;27;20101;-79
2023/12/31 02:48:58;;;;;;;10.27;6.40;;;;;;;0.70;100.00;92297.59;2110872;28;20032;-81
2023/12/31 02:49:59;;;;;;;8.05;6.57;;;;;;;0.69;100.00;92293.44;2113745;28;20031;-79
2023/12/31 02:51:00;;;;;;;8.65;6.57;;;;;;;0.83;100.00;92293.47;2136698;27;20022;-80
2023/12/31 02:52:01;;;;;;;10.15;6.47;;;;;;;0.81;100.00;92294.97;2137568;27;20963;-80
2023/12/31 02:53:03;;;;;;;9.60;6.05;;;;;;;0.78;100.00;92288.56;2127260;27;20539;-80
2023/12/31 02:54:04;;;;;;;8.68;6.38;;;;;;;0.68;100.00;92284.06;2119079;27;20415;-80
2023/12/31 02:55:05;;;;;;;8.93;6.45;;;;;;;0.80;100.00;92288.97;2123860;27;20019;-79
2023/12/31 02:56:06;;;;;;;9.85;6.43;;;;;;;0.86;100.00;92284.09;2137130;27;20030;-81
2023/12/31 02:57:07;;;;;;;8.07;6.63;;;;;;;0.89;100.00;92288.59;2118669;28;20047;-80
2023/12/31 02:58:08;;;;;;;8.93;6.82;;;;;;;1.00;100.00;92278.81;2103054;28;20032;-79
2023/12/31 02:59:09;;;;;;;8.98;6.78;;;;;;;1.02;100.00;92271.31;2120905;27;20038;-79
2023/12/31 03:00:10;;;;;;;8.45;6.10;;;;;;;0.91;100.00;92273.94;2128381;27;20019;-80
2023/12/31 03:01:12;;;;;;;9.52;6.57;;;;;;;0.87;100.00;92280.31;2128939;27;20387;-80
2023/12/31 03:02:13;;;;;;;8.18;6.50;;;;;;;0.90;100.00;92276.94;2120569;28;20027;-79
2023/12/31 03:03:14;;;;;;;11.13;7.80;;;;;;;0.92;100.00;92277.31;2104251;28;20171;-80
2023/12/31 03:04:15;;;;;;;8.63;7.00;;;;;;;0.93;100.00;92276.22;2124838;27;20022;-80
2023/12/31 03:05:16;;;;;;;8.32;6.95;;;;;;;1.00;100.00;92273.56;2114647;28;20020;-80
2023/12/31 03:06:17;;;;;;;9.45;7.03;;;;;;;0.90;100.00;92272.44;2103090;28;20171;-81
2023/12/31 03:07:18;;;;;;;10.50;6.78;;;;;;;0.84;100.00;92265.31;2122316;27;20514;-80
2023/12/31 03:08:19;;;;;;;10.63;7.40;;;;;;;0.92;100.00;92275.47;2132744;27;20355;-80
2023/12/31 03:09:21;;;;;;;12.25;7.55;;;;;;;0.76;100.00;92269.81;2110789;28;20508;-80
2023/12/31 03:10:22;;;;;;;9.20;7.70;;;;;;;0.90;100.00;92269.06;2112408;27;20570;-80
2023/12/31 03:11:23;;;;;;;11.43;8.18;;;;;;;0.95;100.00;92258.91;2129633;27;20018;-80
2023/12/31 03:12:24;;;;;;;11.60;7.40;;;;;;;0.96;100.00;92257.78;2126400;27;20056;-80
2023/12/31 03:13:31;;;;;;;10.60;7.65;;;;;;;0.99;100.00;92261.53;2114369;28;20047;-80
2023/12/31 03:14:31;;;;;;;11.82;7.50;;;;;;;1.10;100.00;92258.91;2123778;27;20098;-80
2023/12/31 03:15:32;;;;;;;11.10;7.50;;;;;;;1.06;100.00;92253.66;2120854;27;20050;-80
2023/12/31 03:16:33;;;;;;;10.90;7.85;;;;;;;1.15;100.00;92253.28;2118859;27;20023;-81
2023/12/31 03:17:34;;;;;;;9.90;7.97;;;;;;;1.00;100.00;92252.50;2124869;27;20053;-81
2023/12/31 03:18:35;;;;;;;10.73;7.90;;;;;;;1.03;100.00;92245.75;2111127;28;20444;-80
2023/12/31 03:19:50;;;;;;;8.85;7.40;;;;;;;0.92;100.00;92243.88;2117073;27;20783;-81
2023/12/31 03:20:51;;;;;;;13.80;8.07;;;;;;;0.96;100.00;92235.97;2111632;28;20138;-80
2023/12/31 03:21:52;;;;;;;9.80;7.50;;;;;;;1.17;100.00;92229.97;2105386;28;20103;-80
2023/12/31 03:22:53;;;;;;;10.45;7.75;;;;;;;1.13;100.00;92226.56;2051444;28;20133;-80
2023/12/31 03:23:54;;;;;;;12.23;8.07;;;;;;;1.17;100.00;92229.97;2029702;28;20165;-80
2023/12/31 03:24:55;;;;;;;10.13;7.43;;;;;;;1.18;100.00;92226.19;2044777;27;20035;-79
2023/12/31 03:25:56;;;;;;;11.35;8.48;;;;;;;1.05;100.00;92230.34;2040916;28;21739;-79
2023/12/31 03:26:57;;;;;;;10.35;7.70;;;;;;;1.00;100.00;92226.94;2036411;27;20028;-80
2023/12/31 03:27:58;;;;;;;11.30;8.27;;;;;;;1.06;100.00;92216.81;2052965;27;20038;-80
2023/12/31 03:29:00;;;;;;;12.43;7.85;;;;;;;1.11;100.00;92210.41;2047565;28;20579;-79
2023/12/31 03:30:01;;;;;;;9.75;7.72;;;;;;;1.04;100.00;92208.53;2046185;27;20181;-80
2023/12/31 03:31:03;;;;;;;10.35;7.60;;;;;;;0.99;100.00;92208.91;2032815;28;20072;-79
2023/12/31 03:32:04;;;;;;;12.85;8.63;;;;;;;1.10;100.00;92207.03;2050639;28;20120;-80
2023/12/31 03:33:05;;;;;;;10.38;8.02;;;;;;;1.09;100.00;92210.03;2068292;28;22573;-79
2023/12/31 03:34:06;;;;;;;11.80;7.68;;;;;;;1.10;100.00;92204.41;2083223;27;20027;-81
2023/12/31 03:35:09;;;;;;;12.68;8.82;;;;;;;1.14;100.00;92202.53;2090254;27;20026;-78
2023/12/31 03:36:10;;;;;;;10.80;7.95;;;;;;;1.09;100.00;92195.00;2075606;28;20633;-79
2023/12/31 03:37:11;;;;;;;13.05;8.75;;;;;;;1.13;100.00;92206.28;2086673;28;20040;-80
2023/12/31 03:38:12;;;;;;;12.70;7.93;;;;;;;1.09;100.00;92195.00;2102390;27;22523;-80
2023/12/31 03:39:14;;;;;;;10.60;8.35;;;;;;;1.13;100.00;92195.00;2102453;28;20086;-80
2023/12/31 03:40:15;;;;;;;12.60;7.90;;;;;;;1.15;100.00;92195.38;2101668;28;20020;-80
2023/12/31 03:41:16;;;;;;;11.68;8.38;;;;;;;1.12;100.00;92191.63;2092956;28;20032;-79
2023/12/31 03:42:18;;;;;;;12.48;8.00;;;;;;;1.07;100.00;92186.00;2107331;28;20063;-81
2023/12/31 03:43:19;;;;;;;12.00;8.55;;;;;;;1.09;100.00;92187.09;2113143;28;20216;-79
2023/12/31 03:44:20;;;;;;;11.88;8.50;;;;;;;0.95;100.00;92182.63;2121429;27;20391;-80
2023/12/31 03:45:21;;;;;;;12.38;8.20;;;;;;;0.91;100.00;92183.75;2108816;28;20028;-79
2023/12/31 03:46:22;;;;;;;12.60;8.18;;;;;;;0.93;100.00;92184.88;2098646;28;20024;-79
2023/12/31 03:47:23;;;;;;;11.23;8.15;;;;;;;0.96;100.00;92183.34;2105029;28;20024;-80
2023/12/31 03:48:25;;;;;;;11.27;8.43;;;;;;;0.88;100.00;92184.50;2113962;28;20023;-80
2023/12/31 03:49:26;;;;;;;10.95;7.28;;;;;;;0.84;100.00;92176.63;2114979;27;20030;-79
2023/12/31 03:50:27;;;;;;;12.98;8.32;;;;;;;0.79;100.00;92170.97;2101110;28;20035;-79
2023/12/31 03:51:27;;;;;;;11.75;7.93;;;;;;;0.94;100.00;92175.09;2105700;28;20405;-80
2023/12/31 03:52:28;;;;;;;12.82;8.30;;;;;;;0.99;100.00;92170.22;2104616;28;20024;-80
2023/12/31 03:53:29;;;;;;;11.07;7.55;;;;;;;0.93;100.00;92177.00;2100081;28;20451;-79
2023/12/31 03:54:30;;;;;;;13.27;8.25;;;;;;;0.91;100.00;92168.72;2112807;28;20054;-79
2023/12/31 03:55:31;;;;;;;11.85;7.85;;;;;;;0.96;100.00;92157.78;2107421;28;20074;-80
2023/12/31 03:56:32;;;;;;;12.43;8.55;;;;;;;0.96;100.00;92160.44;2103184;28;20509;-80
2023/12/31 03:57:33;;;;;;;11.48;8.52;;;;;;;0.99;100.00;92161.56;2110618;28;20134;-80
2023/12/31 03:58:34;;;;;;;12.43;8.20;;;;;;;1.17;100.00;92162.28;2113326;28;20212;-80
2023/12/31 03:59:35;;;;;;;10.93;7.85;;;;;;;1.32;100.00;92156.97;2104195;28;20034;-79
2023/12/31 04:00:36;;;;;;;10.30;7.78;;;;;;;1.12;100.00;92157.41;2109014;28;20032;-80
2023/12/31 04:01:44;;;;;;;11.70;7.80;;;;;;;1.17;100.00;92159.66;2122779;27;20035;-80
2023/12/31 04:02:45;;;;;;;8.05;6.97;;;;;;;1.14;100.00;92154.38;2122169;27;20023;-79
2023/12/31 04:03:46;;;;;;;10.88;7.90;;;;;;;1.15;100.00;92155.91;2100652;28;20035;-80
2023/12/31 04:04:47;;;;;;;9.55;7.72;;;;;;;1.15;100.00;92153.28;2103439;28;20835;-79
2023/12/31 04:05:48;;;;;;;12.13;8.45;;;;;;;1.06;100.00;92143.16;2094196;27;20038;-80
2023/12/31 04:06:49;;;;;;;13.48;9.00;;;;;;;1.15;100.00;92151.38;2012370;28;20024;-79
2023/12/31 04:07:50;;;;;;;14.55;8.57;;;;;;;1.06;100.00;92139.75;2008967;28;20040;-79
2023/12/31 04:08:51;;;;;;;11.63;8.80;;;;;;;1.19;100.00;92144.25;2028826;28;20027;-80
2023/12/31 04:09:52;;;;;;;14.35;9.10;;;;;;;1.13;100.00;92137.84;2032736;28;20039;-80
2023/12/31 04:10:53;;;;;;;10.95;8.43;;;;;;;1.15;100.00;92143.50;2034336;28;20137;-80
2023/12/31 04:11:54;;;;;;;13.25;9.10;;;;;;;1.23;100.00;92138.97;2035171;28;20027;-80
2023/12/31 04:12:55;;;;;;;12.05;9.43;;;;;;;1.27;100.00;92142.31;2034871;28;20024;-80
2023/12/31 04:13:56;;;;;;;13.07;8.80;;;;;;;1.28;100.00;92143.09;2040201;28;20032;-80
2023/12/31 04:14:57;;;;;;;11.57;8.80;;;;;;;1.18;100.00;92134.06;2036017;28;20027;-80
2023/12/31 04:15:58;;;;;;;12.15;8.80;;;;;;;1.19;100.00;92138.97;2029524;28;21185;-79
2023/12/31 04:16:59;;;;;;;10.95;8.52;;;;;;;1.19;100.00;92143.50;2049698;28;20109;-79
2023/12/31 04:18:00;;;;;;;13.45;8.75;;;;;;;1.18;100.00;92132.19;2057811;28;22540;-80
2023/12/31 04:19:01;;;;;;;13.63;10.02;;;;;;;1.14;100.00;92135.97;2072173;28;20039;-81
2023/12/31 04:20:02;;;;;;;13.07;9.48;;;;;;;1.17;100.00;92137.84;2074865;28;20047;-79
2023/12/31 04:21:03;;;;;;;12.23;8.48;;;;;;;1.19;100.00;92123.19;2061494;28;21164;-79
2023/12/31 04:22:04;;;;;;;15.55;9.15;;;;;;;1.22;100.00;92132.19;2073279;28;20109;-79
2023/12/31 04:23:05;;;;;;;12.13;9.52;;;;;;;1.25;100.00;92126.16;2100052;27;20035;-80
2023/12/31 04:24:06;;;;;;;12.30;9.00;;;;;;;1.25;100.00;92132.19;2097537;27;20118;-81
2023/12/31 04:25:07;;;;;;;12.95;9.15;;;;;;;1.32;100.00;92120.91;2103270;28;20341;-80
2023/12/31 04:26:08;;;;;;;12.02;8.77;;;;;;;1.34;100.00;92112.59;2113777;28;20023;-81
2023/12/31 04:27:09;;;;;;;13.68;8.98;;;;;;;1.36;100.00;92113.72;2101957;28;20060;-79
2023/12/31 04:28:10;;;;;;;12.90;9.50;;;;;;;1.30;100.00;92111.88;2104523;28;20512;-81
2023/12/31 04:29:11;;;;;;;12.82;9.88;;;;;;;1.38;100.00;92119.34;2113497;28;20023;-80
2023/12/31 04:30:12;;;;;;;12.20;8.80;;;;;;;1.13;100.00;92114.16;2105050;28;20130;-80
2023/12/31 04:31:13;;;;;;;14.05;8.93;;;;;;;1.12;100.00;92115.31;2103699;28;20036;-79
2023/12/31 04:32:14;;;;;;;12.82;9.40;;;;;;;1.07;100.00;92112.31;2113040;28;20016;-79
2023/12/31 04:33:15;;;;;;;13.63;9.43;;;;;;;1.26;100.00;92109.97;2113193;28;20086;-80
2023/12/31 04:34:16;;;;;;;13.65;9.63;;;;;;;1.27;100.00;92116.00;2113714;28;20404;-80
2023/12/31 04:35:17;;;;;;;13.15;8.88;;;;;;;1.22;100.00;92109.25;2114629;28;20027;-79
2023/12/31 04:36:18;;;;;;;16.88;9.65;;;;;;;1.03;100.00;92119.47;2112211;28;20030;-80
2023/12/31 04:37:19;;;;;;;14.52;9.75;;;;;;;1.13;100.00;92119.44;2111758;28;20027;-81
2023/12/31 04:38:20;;;;;;;13.07;9.68;;;;;;;1.20;100.00;92121.31;2122610;27;20016;-79
2023/12/31 04:39:21;;;;;;;12.00;9.30;;;;;;;1.28;100.00;92112.25;2122839;27;20023;-81
2023/12/31 04:40:22;;;;;;;14.48;9.50;;;;;;;1.23;100.00;92104.75;2122651;27;20015;-80
2023/12/31 04:41:23;;;;;;;13.77;9.82;;;;;;;1.23;100.00;92112.66;2112951;28;20061;-80
2023/12/31 04:42:24;;;;;;;14.57;9.82;;;;;;;1.32;100.00;92109.59;2113592;28;20016;-80
2023/12/31 04:43:24;;;;;;;14.43;9.93;;;;;;;1.29;100.00;92108.47;2107593;28;20035;-80
2023/12/31 04:44:25;;;;;;;14.52;9.95;;;;;;;1.37;100.00;92114.47;2104808;28;20069;-81
2023/12/31 04:45:26;;;;;;;12.10;8.93;;;;;;;1.29;100.00;92113.00;2112304;28;20076;-80
2023/12/31 04:46:27;;;;;;;14.25;9.73;;;;;;;1.36;100.00;92107.69;2122013;27;20023;-79
2023/12/31 04:47:28;;;;;;;13.68;9.93;;;;;;;1.32;100.00;92101.69;2113180;28;20074;-79
2023/12/31 04:48:29;;;;;;;14.38;10.10;;;;;;;1.43;100.00;92112.94;2112525;28;20384;-79
2023/12/31 04:49:30;;;;;;;14.65;10.20;;;;;;;1.40;100.00;92109.19;2123394;27;20101;-79